Time;durP1;ratioP1;P1;durP2;ratioP2;P2;SDS_P1;SDS_P2;PMS_P1;PMS_P2;Temp;Humidity;BMP_temperature;BMP_pressure;BME280_temperature;BME280_humidity;BME280_pressure;Samples;Min_cycle;Max_cycle;Signal;HPM_P1;HPM_P2
2023/04/14 00:01:36;;;;;;;6.13;1.93;;;9.80;78.30;;;;;;5055187;28;20461;-57
2023/04/14 00:04:03;;;;;;;5.80;2.10;;;9.80;78.70;;;;;;5055003;28;20516;-57
2023/04/14 00:06:30;;;;;;;5.97;1.70;;;9.80;79.10;;;;;;5054760;28;20836;-57
2023/04/14 00:08:56;;;;;;;8.13;2.87;;;9.70;79.40;;;;;;5054951;28;20441;-56
2023/04/14 00:11:23;;;;;;;8.17;2.17;;;9.70;79.40;;;;;;5054901;28;20449;-57
2023/04/14 00:13:50;;;;;;;4.13;1.70;;;9.70;79.80;;;;;;5054825;28;20469;-57
2023/04/14 00:16:18;;;;;;;5.70;1.80;;;9.60;79.90;;;;;;5054610;28;20952;-57
2023/04/14 00:18:45;;;;;;;13.10;4.77;;;9.60;80.10;;;;;;5054405;28;20844;-57
2023/04/14 00:21:12;;;;;;;3.27;1.53;;;9.50;80.00;;;;;;5054840;28;20449;-57
2023/04/14 00:23:39;;;;;;;7.27;3.10;;;9.50;80.70;;;;;;5054693;28;20527;-57
2023/04/14 00:26:05;;;;;;;6.17;2.00;;;9.50;80.50;;;;;;5054737;28;20456;-57
2023/04/14 00:28:32;;;;;;;8.47;2.17;;;9.40;80.70;;;;;;5054678;28;20449;-57
2023/04/14 00:30:59;;;;;;;7.50;1.97;;;9.30;81.10;;;;;;5054548;28;20454;-57
2023/04/14 00:33:27;;;;;;;8.20;1.60;;;9.30;81.60;;;;;;5054444;28;20876;-56
2023/04/14 00:35:54;;;;;;;7.40;2.43;;;9.30;81.80;;;;;;5054557;28;20450;-56
2023/04/14 00:38:20;;;;;;;4.40;1.30;;;9.30;82.00;;;;;;5054423;28;20442;-56
2023/04/14 00:40:47;;;;;;;8.07;1.60;;;9.20;82.10;;;;;;5054292;28;20454;-56
2023/04/14 00:43:17;;;;;;;4.00;1.30;;;9.20;82.50;;;;;;5054378;28;20806;-56
2023/04/14 00:45:46;;;;;;;5.83;1.97;;;9.10;82.50;;;;;;5054473;28;20548;-57
2023/04/14 00:48:14;;;;;;;5.50;1.87;;;9.10;82.80;;;;;;5054198;28;20450;-57
2023/04/14 00:50:42;;;;;;;1.87;1.40;;;9.10;83.10;;;;;;5054185;28;20438;-57
2023/04/14 00:53:10;;;;;;;6.80;1.90;;;9.00;83.30;;;;;;5054223;28;20495;-57
2023/04/14 00:55:39;;;;;;;5.03;1.97;;;9.00;84.40;;;;;;5054045;28;20511;-57
2023/04/14 00:58:06;;;;;;;8.23;1.67;;;9.00;84.00;;;;;;5054067;28;20449;-57
2023/04/14 01:00:33;;;;;;;4.63;1.57;;;9.00;84.10;;;;;;5053677;28;20477;-57
2023/04/14 01:03:00;;;;;;;5.23;2.40;;;9.00;84.30;;;;;;5053987;28;20461;-57
2023/04/14 01:05:27;;;;;;;4.33;1.87;;;8.90;84.20;;;;;;5053915;28;20527;-57
2023/04/14 01:07:55;;;;;;;4.43;1.67;;;8.90;84.20;;;;;;5052799;28;21013;-57
2023/04/14 01:10:23;;;;;;;2.90;1.30;;;8.90;84.50;;;;;;5053913;28;20449;-57
2023/04/14 01:13:05;;;;;;;10.30;2.10;;;8.90;85.00;;;;;;5053899;28;20449;-57
2023/04/14 01:15:38;;;;;;;10.57;1.70;;;8.90;85.40;;;;;;5053851;28;20468;-57
2023/04/14 01:18:12;;;;;;;10.77;2.20;;;8.90;85.80;;;;;;5054602;28;20430;-57
2023/04/14 01:20:42;;;;;;;4.33;1.80;;;8.90;85.80;;;;;;5054165;28;20477;-57
2023/04/14 01:23:13;;;;;;;8.53;1.60;;;8.90;86.00;;;;;;5053961;28;20477;-57
2023/04/14 01:26:16;;;;;;;5.93;1.90;;;8.90;86.00;;;;;;5053570;28;20837;-57
2023/04/14 01:29:00;;;;;;;6.33;2.00;;;8.80;86.10;;;;;;5053554;28;20441;-57
2023/04/14 01:31:31;;;;;;;4.30;1.90;;;8.80;86.50;;;;;;5053805;28;20438;-57
2023/04/14 01:34:06;;;;;;;5.00;1.83;;;8.80;86.70;;;;;;5053488;28;20469;-57
2023/04/14 01:36:38;;;;;;;9.90;1.70;;;8.80;87.10;;;;;;5053507;28;20429;-57
2023/04/14 01:39:08;;;;;;;5.43;1.80;;;8.80;87.30;;;;;;5053404;28;20469;-57
2023/04/14 01:41:39;;;;;;;5.23;2.33;;;8.80;87.60;;;;;;5053562;28;20882;-57
2023/04/14 01:44:07;;;;;;;4.00;2.13;;;8.90;87.80;;;;;;5053523;28;21091;-57
2023/04/14 01:46:36;;;;;;;4.40;1.77;;;8.80;87.40;;;;;;5053044;28;20951;-57
2023/04/14 01:49:03;;;;;;;5.13;1.83;;;8.80;87.30;;;;;;5052959;28;20468;-57
2023/04/14 01:51:32;;;;;;;7.93;2.50;;;8.80;87.20;;;;;;5053000;28;20966;-57
2023/04/14 01:54:02;;;;;;;7.03;1.90;;;8.70;87.10;;;;;;5052927;28;20983;-56
2023/04/14 01:56:30;;;;;;;5.83;1.77;;;8.70;87.20;;;;;;5053329;28;20460;-56
2023/04/14 01:58:58;;;;;;;3.97;1.57;;;8.60;87.50;;;;;;5053160;28;20541;-57
2023/04/14 02:01:27;;;;;;;6.10;1.80;;;8.60;87.80;;;;;;5053140;28;20445;-56
2023/04/14 02:03:57;;;;;;;4.20;1.67;;;8.60;87.90;;;;;;5053024;28;20469;-56
2023/04/14 02:06:26;;;;;;;5.63;1.60;;;8.50;87.80;;;;;;5053131;28;20445;-57
2023/04/14 02:08:53;;;;;;;3.03;1.50;;;8.50;87.80;;;;;;5053098;28;20477;-57
2023/04/14 02:11:21;;;;;;;6.53;2.17;;;8.40;87.90;;;;;;5052774;28;20943;-57
2023/04/14 02:13:48;;;;;;;5.83;1.90;;;8.40;87.90;;;;;;5053079;28;20843;-56
2023/04/14 02:16:16;;;;;;;4.93;1.90;;;8.30;87.90;;;;;;5053101;28;20477;-56
2023/04/14 02:18:43;;;;;;;4.33;1.73;;;8.30;88.10;;;;;;5054033;28;21024;-56
2023/04/14 02:21:15;;;;;;;10.03;2.40;;;8.30;88.30;;;;;;5056973;28;20489;-56
2023/04/14 02:23:42;;;;;;;7.80;1.93;;;8.30;88.30;;;;;;5056669;28;20974;-57
2023/04/14 02:26:12;;;;;;;4.47;1.77;;;8.30;88.60;;;;;;5056644;28;20935;-57
2023/04/14 02:28:49;;;;;;;12.67;2.30;;;8.30;89.10;;;;;;5056598;28;20907;-56
2023/04/14 02:31:22;;;;;;;6.63;1.80;;;8.30;89.30;;;;;;5056951;28;20834;-56
2023/04/14 02:33:54;;;;;;;5.70;2.00;;;8.30;89.30;;;;;;5056827;28;20495;-57
2023/04/14 02:36:27;;;;;;;5.63;1.97;;;8.30;89.40;;;;;;5056831;28;20517;-57
2023/04/14 02:38:58;;;;;;;5.83;1.90;;;8.30;89.60;;;;;;5056769;28;20429;-56
2023/04/14 02:41:27;;;;;;;8.77;2.30;;;8.20;89.70;;;;;;5056344;28;20955;-57
2023/04/14 02:44:00;;;;;;;5.50;2.40;;;8.20;89.70;;;;;;5056295;28;20983;-57
2023/04/14 02:46:31;;;;;;;7.53;2.43;;;8.10;89.80;;;;;;5056629;28;20446;-57
2023/04/14 02:49:01;;;;;;;5.40;2.40;;;8.10;89.90;;;;;;5056609;28;20429;-57
2023/04/14 02:51:31;;;;;;;6.47;1.80;;;8.10;90.00;;;;;;5056407;28;20473;-57
2023/04/14 02:53:58;;;;;;;6.73;1.70;;;8.10;90.00;;;;;;5056370;28;20457;-57
2023/04/14 02:56:26;;;;;;;4.93;1.80;;;8.10;90.10;;;;;;5056442;28;20448;-57
2023/04/14 02:58:53;;;;;;;3.70;1.60;;;8.10;90.20;;;;;;5056397;28;20455;-57
2023/04/14 03:01:21;;;;;;;3.87;2.23;;;8.10;90.10;;;;;;5056191;28;20488;-57
2023/04/14 03:03:49;;;;;;;4.77;1.80;;;8.00;90.20;;;;;;5056260;28;20879;-57
2023/04/14 03:06:16;;;;;;;6.30;2.43;;;8.00;90.40;;;;;;5055945;28;20861;-57
2023/04/14 03:08:47;;;;;;;5.80;1.57;;;8.00;90.50;;;;;;5056212;28;20484;-57
2023/04/14 03:11:15;;;;;;;3.43;1.80;;;8.10;90.70;;;;;;5056094;28;20469;-57
2023/04/14 03:13:43;;;;;;;4.40;1.90;;;8.10;90.70;;;;;;5056068;28;20469;-56
2023/04/14 03:16:11;;;;;;;3.87;1.60;;;8.10;90.80;;;;;;5055727;28;20540;-57
2023/04/14 03:18:38;;;;;;;7.00;2.23;;;8.10;91.00;;;;;;5055668;28;20935;-57
2023/04/14 03:21:06;;;;;;;4.63;1.77;;;8.10;91.20;;;;;;5055922;28;20477;-57
2023/04/14 03:23:33;;;;;;;8.17;2.23;;;8.10;91.40;;;;;;5055670;28;20962;-57
2023/04/14 03:26:02;;;;;;;5.90;2.37;;;8.10;91.40;;;;;;5055833;28;20454;-57
2023/04/14 03:28:33;;;;;;;4.17;2.50;;;8.10;91.40;;;;;;5055818;28;20445;-57
2023/04/14 03:31:03;;;;;;;4.90;3.00;;;8.10;91.40;;;;;;5054808;28;20519;-57
2023/04/14 03:33:32;;;;;;;5.13;1.90;;;8.10;91.80;;;;;;5055648;28;20541;-57
2023/04/14 03:36:00;;;;;;;6.70;2.30;;;8.00;91.90;;;;;;5055684;28;20503;-57
2023/04/14 03:38:27;;;;;;;6.23;2.43;;;8.00;91.90;;;;;;5055612;28;20441;-57
2023/04/14 03:40:58;;;;;;;7.57;2.17;;;8.00;91.80;;;;;;5055090;28;20485;-57
2023/04/14 03:43:28;;;;;;;3.57;1.80;;;7.90;91.70;;;;;;5055531;28;20469;-56
2023/04/14 03:45:55;;;;;;;4.30;2.00;;;8.00;91.70;;;;;;5055490;28;20453;-57
2023/04/14 03:48:25;;;;;;;7.27;2.50;;;7.90;91.60;;;;;;5055466;28;20450;-57
2023/04/14 03:50:53;;;;;;;2.10;1.70;;;7.90;91.60;;;;;;5055407;28;20533;-57
2023/04/14 03:53:21;;;;;;;5.50;2.20;;;7.90;91.70;;;;;;5056092;28;20458;-57
2023/04/14 03:55:51;;;;;;;5.23;2.47;;;7.80;91.50;;;;;;5055351;28;20457;-57
2023/04/14 03:58:19;;;;;;;5.33;2.30;;;7.70;91.30;;;;;;5055292;28;20493;-57
2023/04/14 04:00:48;;;;;;;4.60;1.80;;;7.70;91.20;;;;;;5055099;28;20482;-57
2023/04/14 04:03:15;;;;;;;3.20;1.90;;;7.60;91.10;;;;;;5055256;28;20457;-57
2023/04/14 04:05:43;;;;;;;6.00;2.00;;;7.50;90.70;;;;;;5055232;28;20507;-57
2023/04/14 04:08:11;;;;;;;3.73;2.07;;;7.40;90.60;;;;;;5054820;28;20453;-57
2023/04/14 04:10:38;;;;;;;10.10;2.23;;;7.40;90.60;;;;;;5055075;28;20454;-57
2023/04/14 04:13:10;;;;;;;2.70;1.90;;;7.30;91.10;;;;;;5055106;28;20476;-57
2023/04/14 04:15:37;;;;;;;3.60;1.70;;;7.20;90.90;;;;;;5055136;28;20481;-57
2023/04/14 04:18:06;;;;;;;3.83;2.10;;;7.20;91.10;;;;;;5054955;28;20445;-57
2023/04/14 04:20:35;;;;;;;5.47;1.80;;;7.20;91.40;;;;;;5055154;28;20474;-57
2023/04/14 04:23:03;;;;;;;6.67;2.00;;;7.10;91.30;;;;;;5054777;28;20449;-57
2023/04/14 04:25:31;;;;;;;5.87;2.00;;;7.20;91.50;;;;;;5054643;28;20515;-57
2023/04/14 04:27:59;;;;;;;6.47;2.27;;;7.20;91.80;;;;;;5054689;28;20453;-57
2023/04/14 04:30:29;;;;;;;6.07;2.37;;;7.30;92.20;;;;;;5054790;28;20446;-57
2023/04/14 04:32:56;;;;;;;10.97;2.70;;;7.30;92.70;;;;;;5054794;28;20457;-57
2023/04/14 04:35:25;;;;;;;3.53;2.07;;;7.40;93.10;;;;;;5054302;28;20480;-57
2023/04/14 04:37:53;;;;;;;9.00;1.90;;;7.40;93.30;;;;;;5054424;28;20791;-57
2023/04/14 04:40:20;;;;;;;9.67;2.50;;;7.50;93.40;;;;;;5054466;28;20477;-57
2023/04/14 04:42:46;;;;;;;8.83;2.77;;;7.50;93.70;;;;;;5053957;28;20462;-57
2023/04/14 04:45:19;;;;;;;6.60;2.57;;;7.50;93.40;;;;;;5053541;28;20645;-57
2023/04/14 04:47:45;;;;;;;9.80;2.83;;;7.60;93.40;;;;;;5054310;28;20442;-57
2023/04/14 04:50:12;;;;;;;4.33;2.00;;;7.50;93.30;;;;;;5054344;28;20450;-57
2023/04/14 04:52:40;;;;;;;6.17;2.50;;;7.50;93.20;;;;;;5054267;28;20817;-57
2023/04/14 04:55:07;;;;;;;6.97;2.60;;;7.60;93.20;;;;;;5054150;28;20465;-57
2023/04/14 04:57:34;;;;;;;6.30;2.70;;;7.60;93.10;;;;;;5054150;28;20450;-57
2023/04/14 05:00:00;;;;;;;5.90;3.17;;;7.60;93.10;;;;;;5054110;28;20540;-57
2023/04/14 05:02:27;;;;;;;5.40;2.50;;;7.60;93.10;;;;;;5054044;28;20449;-57
2023/04/14 05:04:54;;;;;;;4.40;2.30;;;7.60;92.90;;;;;;5053675;28;20987;-57
2023/04/14 05:07:20;;;;;;;7.00;2.30;;;7.60;92.80;;;;;;5054003;28;20453;-57
2023/04/14 05:09:49;;;;;;;5.83;2.40;;;7.60;92.70;;;;;;5053612;28;20977;-57
2023/04/14 05:12:15;;;;;;;7.50;2.90;;;7.60;92.70;;;;;;5053853;28;20445;-57
2023/04/14 05:14:42;;;;;;;7.23;2.30;;;7.60;92.70;;;;;;5054064;28;20465;-57
2023/04/14 05:17:09;;;;;;;5.20;2.97;;;7.60;93.00;;;;;;5054159;28;20476;-57
2023/04/14 05:19:35;;;;;;;3.70;2.40;;;7.60;93.20;;;;;;5053589;28;21002;-57
2023/04/14 05:22:02;;;;;;;3.63;2.40;;;7.60;93.30;;;;;;5053752;28;20513;-57
2023/04/14 05:24:29;;;;;;;6.27;2.37;;;7.50;93.20;;;;;;5053650;28;20835;-57
2023/04/14 05:26:57;;;;;;;4.80;2.73;;;7.40;93.20;;;;;;5053758;28;20456;-57
2023/04/14 05:29:23;;;;;;;4.17;2.63;;;7.40;93.20;;;;;;5053970;28;20951;-57
2023/04/14 05:31:50;;;;;;;6.03;3.13;;;7.40;93.20;;;;;;5053696;28;20849;-57
2023/04/14 05:34:17;;;;;;;8.13;3.00;;;7.40;93.40;;;;;;5053513;28;20481;-57
2023/04/14 05:36:43;;;;;;;7.40;3.03;;;7.50;93.70;;;;;;5053808;28;20453;-57
2023/04/14 05:39:10;;;;;;;9.90;3.50;;;7.50;94.00;;;;;;5053417;28;20835;-57
2023/04/14 05:41:37;;;;;;;9.90;3.73;;;7.50;94.10;;;;;;5053087;28;20489;-57
2023/04/14 05:44:05;;;;;;;7.40;2.37;;;7.60;94.20;;;;;;5053392;28;20474;-57
2023/04/14 05:46:32;;;;;;;4.73;2.43;;;7.60;94.30;;;;;;5053124;28;20454;-57
2023/04/14 05:48:59;;;;;;;6.73;3.00;;;7.60;94.50;;;;;;5053516;28;20458;-57
2023/04/14 05:51:26;;;;;;;4.67;2.60;;;7.70;94.70;;;;;;5053333;28;20442;-57
2023/04/14 05:53:53;;;;;;;8.93;3.20;;;7.80;94.80;;;;;;5052718;28;20552;-57
2023/04/14 05:56:20;;;;;;;4.00;2.90;;;7.80;94.80;;;;;;5053267;28;20499;-57
2023/04/14 05:58:47;;;;;;;6.50;2.90;;;7.90;94.80;;;;;;5053241;28;20442;-57
2023/04/14 06:01:15;;;;;;;5.00;2.70;;;7.90;94.60;;;;;;5053151;28;20524;-57
2023/04/14 06:03:42;;;;;;;7.23;2.93;;;7.90;94.50;;;;;;5053308;28;20481;-57
2023/04/14 06:06:08;;;;;;;15.97;4.17;;;8.00;94.60;;;;;;5053158;28;20449;-57
2023/04/14 06:08:35;;;;;;;4.23;2.67;;;8.10;94.80;;;;;;5053141;28;20862;-57
2023/04/14 06:11:02;;;;;;;7.20;3.10;;;8.10;94.70;;;;;;5052841;28;20962;-57
2023/04/14 06:13:29;;;;;;;4.87;2.97;;;8.10;94.60;;;;;;5053002;28;20446;-57
2023/04/14 06:15:57;;;;;;;6.17;3.07;;;8.20;94.70;;;;;;5053202;28;20461;-57
2023/04/14 06:18:25;;;;;;;5.20;2.50;;;8.30;94.70;;;;;;5052982;28;20452;-57
2023/04/14 06:20:51;;;;;;;14.47;3.10;;;8.30;94.40;;;;;;5053407;28;20485;-57
2023/04/14 06:23:20;;;;;;;12.20;3.03;;;8.40;94.10;;;;;;5053943;28;20445;-57
2023/04/14 06:25:47;;;;;;;9.57;3.70;;;8.50;94.00;;;;;;5052953;28;20804;-57
2023/04/14 06:28:14;;;;;;;16.37;3.73;;;8.50;94.00;;;;;;5052965;28;20465;-57
2023/04/14 06:30:41;;;;;;;20.70;4.83;;;8.60;93.90;;;;;;5052690;28;20457;-57
2023/04/14 06:33:07;;;;;;;10.50;4.80;;;8.60;93.80;;;;;;5052953;28;20453;-57
2023/04/14 06:35:35;;;;;;;5.43;3.50;;;8.70;93.80;;;;;;5053110;28;20465;-56
2023/04/14 06:38:02;;;;;;;4.90;2.63;;;8.70;93.40;;;;;;5052620;28;20802;-57
2023/04/14 06:40:29;;;;;;;4.43;2.90;;;8.80;93.20;;;;;;5053001;28;20456;-57
2023/04/14 06:42:55;;;;;;;10.40;3.53;;;8.90;93.40;;;;;;5052617;28;20947;-56
2023/04/14 06:45:22;;;;;;;8.77;2.87;;;8.90;93.30;;;;;;5052620;28;20527;-57
2023/04/14 06:47:49;;;;;;;7.13;2.90;;;9.00;93.20;;;;;;5052965;28;20445;-57
2023/04/14 06:50:16;;;;;;;6.93;3.23;;;9.10;93.20;;;;;;5052470;28;21016;-57
2023/04/14 06:52:44;;;;;;;5.80;2.80;;;9.10;93.20;;;;;;5052676;28;20456;-57
2023/04/14 06:55:10;;;;;;;6.63;3.17;;;9.20;93.10;;;;;;5052713;28;20552;-57
2023/04/14 06:57:37;;;;;;;4.40;2.90;;;9.30;92.80;;;;;;5052710;28;20797;-57
2023/04/14 07:00:05;;;;;;;5.60;2.40;;;9.30;92.80;;;;;;5052698;28;20457;-57
2023/04/14 07:02:32;;;;;;;3.00;2.17;;;9.40;92.60;;;;;;5052500;28;21001;-57
2023/04/14 07:04:59;;;;;;;8.87;2.83;;;9.40;92.70;;;;;;5052667;28;20534;-57
2023/04/14 07:07:26;;;;;;;7.80;2.40;;;9.50;92.70;;;;;;5056276;28;20835;-57
2023/04/14 07:09:54;;;;;;;4.07;2.20;;;9.70;92.90;;;;;;5056194;28;20458;-57
2023/04/14 07:12:20;;;;;;;8.87;2.53;;;9.80;92.70;;;;;;5056058;28;20452;-57
2023/04/14 07:14:50;;;;;;;8.13;3.30;;;9.90;92.60;;;;;;5056122;28;20519;-57
2023/04/14 07:17:17;;;;;;;4.30;2.57;;;10.00;91.30;;;;;;5057359;28;20484;-57
2023/04/14 07:19:45;;;;;;;5.97;3.00;;;10.20;91.20;;;;;;5056037;28;20956;-57
2023/04/14 07:22:11;;;;;;;7.50;2.57;;;10.30;91.00;;;;;;5055940;28;20481;-57
2023/04/14 07:24:38;;;;;;;7.40;2.83;;;10.30;90.80;;;;;;5055926;28;20472;-57
2023/04/14 07:27:07;;;;;;;9.50;2.40;;;10.50;90.60;;;;;;5055969;28;20453;-57
2023/04/14 07:29:35;;;;;;;3.67;2.30;;;10.60;90.20;;;;;;5055957;28;20488;-57
2023/04/14 07:32:01;;;;;;;4.93;2.80;;;10.80;89.20;;;;;;5055777;28;20441;-57
2023/04/14 07:34:28;;;;;;;7.60;2.83;;;10.90;88.70;;;;;;5055723;28;20474;-57
2023/04/14 07:36:56;;;;;;;5.67;3.33;;;11.10;88.60;;;;;;5055813;28;20447;-57
2023/04/14 07:39:23;;;;;;;9.33;2.90;;;11.20;87.70;;;;;;5055642;28;20449;-57
2023/04/14 07:41:50;;;;;;;6.53;2.57;;;11.30;87.10;;;;;;5055299;28;20576;-57
2023/04/14 07:44:18;;;;;;;6.33;2.50;;;11.50;86.20;;;;;;5055707;28;20496;-57
2023/04/14 07:46:44;;;;;;;7.07;2.23;;;11.70;85.10;;;;;;5055523;28;20446;-57
2023/04/14 07:49:11;;;;;;;6.93;2.57;;;11.80;83.90;;;;;;5055515;28;20457;-57
2023/04/14 07:51:38;;;;;;;6.33;2.40;;;12.00;82.40;;;;;;5055537;28;20448;-57
2023/04/14 07:54:05;;;;;;;8.37;3.10;;;12.20;82.10;;;;;;5055417;28;20477;-57
2023/04/14 07:56:32;;;;;;;7.13;3.23;;;12.30;81.30;;;;;;5055551;28;20529;-57
2023/04/14 07:58:59;;;;;;;7.70;2.50;;;12.40;80.60;;;;;;5055090;28;20947;-57
2023/04/14 08:01:27;;;;;;;7.60;2.77;;;12.50;80.80;;;;;;5055257;28;20488;-57
2023/04/14 08:03:54;;;;;;;8.80;3.00;;;12.70;80.30;;;;;;5055687;28;20480;-57
2023/04/14 08:06:20;;;;;;;3.80;2.17;;;12.90;79.40;;;;;;5054917;28;20795;-57
2023/04/14 08:08:47;;;;;;;6.57;2.70;;;13.10;79.00;;;;;;5055230;28;20445;-57
2023/04/14 08:11:14;;;;;;;7.23;2.37;;;13.30;78.00;;;;;;5054954;28;20484;-57
2023/04/14 08:13:40;;;;;;;8.30;2.87;;;13.50;77.80;;;;;;5054925;28;20557;-57
2023/04/14 08:16:08;;;;;;;5.40;2.40;;;13.80;77.80;;;;;;5054500;28;20453;-57
2023/04/14 08:18:36;;;;;;;9.50;2.57;;;14.00;77.10;;;;;;5054889;28;20546;-57
2023/04/14 08:21:03;;;;;;;8.73;3.70;;;14.30;76.00;;;;;;5054753;28;20449;-57
2023/04/14 08:23:29;;;;;;;9.27;2.70;;;14.50;72.90;;;;;;5054710;28;20472;-57
2023/04/14 08:25:56;;;;;;;6.17;2.53;;;14.70;71.60;;;;;;5054755;28;20545;-57
2023/04/14 08:28:23;;;;;;;6.20;2.30;;;14.90;69.60;;;;;;5054743;28;20454;-57
2023/04/14 08:30:50;;;;;;;6.67;2.20;;;15.10;69.50;;;;;;5054744;28;20449;-57
2023/04/14 08:33:16;;;;;;;4.90;2.50;;;15.30;69.50;;;;;;5054345;28;20966;-57
2023/04/14 08:35:45;;;;;;;3.53;2.00;;;15.50;68.70;;;;;;5054527;28;20456;-57
2023/04/14 08:38:11;;;;;;;7.37;3.50;;;15.70;68.30;;;;;;5054211;28;20476;-57
2023/04/14 08:40:40;;;;;;;4.53;2.67;;;15.90;67.20;;;;;;5054435;28;20810;-57
2023/04/14 08:43:07;;;;;;;3.50;1.80;;;16.20;65.60;;;;;;5053928;28;20539;-57
2023/04/14 08:45:34;;;;;;;9.30;2.50;;;16.40;63.20;;;;;;5054348;28;20476;-57
2023/04/14 08:48:02;;;;;;;8.17;2.37;;;16.60;61.60;;;;;;5054392;28;20472;-57
2023/04/14 08:50:36;;;;;;;7.77;2.20;;;16.90;59.80;;;;;;5054294;28;20449;-57
2023/04/14 08:53:08;;;;;;;6.47;2.67;;;17.10;59.10;;;;;;5054346;28;20437;-57
2023/04/14 08:55:38;;;;;;;5.87;2.60;;;17.30;58.10;;;;;;5054175;28;20461;-57
2023/04/14 08:58:09;;;;;;;5.77;2.47;;;17.50;57.00;;;;;;5054273;28;20495;-57
2023/04/14 09:00:35;;;;;;;6.60;2.70;;;17.80;55.80;;;;;;5054191;28;20434;-57
2023/04/14 09:03:03;;;;;;;4.60;2.17;;;18.00;54.10;;;;;;5054473;28;20986;-57
2023/04/14 09:05:30;;;;;;;4.70;2.47;;;18.10;53.70;;;;;;5053985;28;20461;-57
2023/04/14 09:07:57;;;;;;;4.67;2.13;;;18.40;53.50;;;;;;5054161;28;20500;-57
2023/04/14 09:10:29;;;;;;;4.53;2.13;;;18.50;52.60;;;;;;5053595;28;20962;-57
2023/04/14 09:12:56;;;;;;;4.90;2.27;;;18.70;52.10;;;;;;5054189;28;20426;-57
2023/04/14 09:15:26;;;;;;;5.10;2.60;;;18.90;51.70;;;;;;5053452;28;20461;-57
2023/04/14 09:17:53;;;;;;;7.23;2.80;;;19.00;52.10;;;;;;5053491;28;20963;-57
2023/04/14 09:20:20;;;;;;;7.03;2.80;;;19.20;51.40;;;;;;5053750;28;20464;-57
2023/04/14 09:22:47;;;;;;;5.77;2.47;;;19.40;50.70;;;;;;5054466;28;20485;-57
2023/04/14 09:25:15;;;;;;;6.93;2.60;;;19.50;49.60;;;;;;5053769;28;20465;-57
2023/04/14 09:27:44;;;;;;;5.50;2.50;;;19.50;48.40;;;;;;5053147;28;20446;-57
2023/04/14 09:30:11;;;;;;;5.33;2.37;;;19.60;49.30;;;;;;5053452;28;20456;-57
2023/04/14 09:32:39;;;;;;;6.67;2.83;;;19.80;49.90;;;;;;5053586;28;20854;-57
2023/04/14 09:35:06;;;;;;;6.07;2.60;;;20.00;50.30;;;;;;5053511;28;20470;-57
2023/04/14 09:37:43;;;;;;;8.00;2.80;;;20.20;49.60;;;;;;5053663;28;20450;-57
2023/04/14 09:40:11;;;;;;;5.60;2.70;;;20.50;49.20;;;;;;5053473;28;20464;-58
2023/04/14 09:42:38;;;;;;;8.30;2.80;;;20.80;48.40;;;;;;5053310;28;20580;-58
2023/04/14 09:45:08;;;;;;;5.83;3.00;;;20.90;47.50;;;;;;5053295;28;20543;-58
2023/04/14 09:47:35;;;;;;;7.30;2.70;;;21.10;44.20;;;;;;5053121;28;20954;-57
2023/04/14 09:50:03;;;;;;;7.10;2.43;;;21.20;43.00;;;;;;5053626;28;20449;-58
2023/04/14 09:52:38;;;;;;;4.60;2.57;;;21.30;42.40;;;;;;5053299;28;20869;-57
2023/04/14 09:55:07;;;;;;;4.00;2.20;;;21.30;40.90;;;;;;5052978;28;21001;-58
2023/04/14 09:57:34;;;;;;;4.17;2.57;;;21.30;41.20;;;;;;5053267;28;20496;-58
2023/04/14 10:00:01;;;;;;;4.63;2.00;;;21.50;41.60;;;;;;5052987;28;20886;-58
2023/04/14 10:02:30;;;;;;;5.30;1.93;;;21.60;41.20;;;;;;5053126;28;20494;-58
2023/04/14 10:05:04;;;;;;;7.40;2.57;;;21.90;41.80;;;;;;5052800;28;20560;-58
2023/04/14 10:07:32;;;;;;;5.50;2.17;;;22.30;42.20;;;;;;5053282;28;20425;-58
2023/04/14 10:10:06;;;;;;;7.20;2.67;;;22.60;41.60;;;;;;5053280;28;20556;-59
2023/04/14 10:12:33;;;;;;;5.00;2.50;;;22.80;38.50;;;;;;5053274;28;20476;-57
2023/04/14 10:15:00;;;;;;;6.23;2.97;;;23.10;40.00;;;;;;5053191;28;20476;-58
2023/04/14 10:17:27;;;;;;;5.90;2.60;;;23.50;40.10;;;;;;5053301;28;20449;-58
2023/04/14 10:19:55;;;;;;;3.00;2.03;;;23.90;39.10;;;;;;5053170;28;20456;-57
2023/04/14 10:22:23;;;;;;;6.13;2.90;;;24.40;37.50;;;;;;5052666;28;21007;-58
2023/04/14 10:24:51;;;;;;;4.20;2.60;;;24.70;36.70;;;;;;5052966;28;20473;-57
2023/04/14 10:27:18;;;;;;;5.40;2.70;;;24.90;34.50;;;;;;5053043;28;20461;-58
2023/04/14 10:29:46;;;;;;;7.90;3.03;;;24.90;33.70;;;;;;5052948;28;20495;-58
2023/04/14 10:32:16;;;;;;;4.60;2.50;;;24.90;34.60;;;;;;5052964;28;20451;-58
2023/04/14 10:34:57;;;;;;;7.67;3.40;;;25.30;35.60;;;;;;5052866;28;20466;-57
2023/04/14 10:37:24;;;;;;;5.50;3.10;;;25.80;33.70;;;;;;5052939;28;20468;-57
2023/04/14 10:39:55;;;;;;;5.23;2.73;;;26.30;34.20;;;;;;5054371;28;20528;-58
2023/04/14 10:42:23;;;;;;;3.47;2.20;;;26.30;30.40;;;;;;5056512;28;20571;-58
2023/04/14 10:45:03;;;;;;;6.13;2.87;;;26.40;30.90;;;;;;5056635;28;20477;-58
2023/04/14 10:47:30;;;;;;;5.70;3.23;;;26.70;30.20;;;;;;5056619;28;20495;-58
2023/04/14 10:50:03;;;;;;;5.23;2.87;;;26.60;28.90;;;;;;5056281;28;20507;-57
2023/04/14 10:52:33;;;;;;;5.63;2.60;;;26.70;30.00;;;;;;5056537;28;20434;-58
2023/04/14 10:55:07;;;;;;;5.50;2.50;;;27.40;30.70;;;;;;5055941;28;20995;-58
2023/04/14 10:57:36;;;;;;;7.30;2.93;;;28.30;30.30;;;;;;5056507;28;20519;-58
2023/04/14 11:00:22;;;;;;;5.00;2.40;;;29.00;28.60;;;;;;5056290;28;20449;-58
2023/04/14 11:02:55;;;;;;;5.77;2.53;;;29.40;27.40;;;;;;5057080;28;20469;-59
2023/04/14 11:05:23;;;;;;;5.30;2.77;;;29.60;26.80;;;;;;5056202;28;20475;-58
2023/04/14 11:07:54;;;;;;;5.53;2.63;;;30.00;26.90;;;;;;5056199;28;20437;-58
2023/04/14 11:10:26;;;;;;;6.07;2.73;;;30.70;26.70;;;;;;5056225;28;20899;-58
2023/04/14 11:12:56;;;;;;;4.83;2.60;;;31.40;25.50;;;;;;5056243;28;20436;-58
2023/04/14 11:15:23;;;;;;;4.63;3.00;;;32.00;24.90;;;;;;5056085;28;20476;-58
2023/04/14 11:17:51;;;;;;;4.90;2.20;;;32.60;23.00;;;;;;5056091;28;20453;-58
2023/04/14 11:20:19;;;;;;;5.50;2.33;;;32.50;23.00;;;;;;5055761;28;21036;-58
2023/04/14 11:22:48;;;;;;;3.63;2.23;;;31.80;21.90;;;;;;5055573;28;20857;-58
2023/04/14 11:25:17;;;;;;;5.40;2.60;;;31.40;22.10;;;;;;5055922;28;20480;-58
2023/04/14 11:27:44;;;;;;;3.13;2.00;;;31.40;22.90;;;;;;5055925;28;20453;-58
2023/04/14 11:30:15;;;;;;;3.70;2.00;;;31.60;22.50;;;;;;5055907;28;20453;-58
2023/04/14 11:32:46;;;;;;;4.47;2.40;;;31.90;21.80;;;;;;5055890;28;20436;-58
2023/04/14 11:35:13;;;;;;;5.07;2.07;;;32.20;21.20;;;;;;5055739;28;20904;-58
2023/04/14 11:37:40;;;;;;;6.90;2.60;;;32.30;21.20;;;;;;5055712;28;20453;-58
2023/04/14 11:40:11;;;;;;;3.20;2.03;;;32.40;21.00;;;;;;5055405;28;20819;-58
2023/04/14 11:42:38;;;;;;;3.77;2.10;;;32.70;22.20;;;;;;5055398;28;20485;-58
2023/04/14 11:45:06;;;;;;;5.23;1.80;;;33.10;22.00;;;;;;5055261;28;20986;-58
2023/04/14 11:47:32;;;;;;;6.43;2.10;;;33.60;20.90;;;;;;5055508;28;20449;-58
2023/04/14 11:50:03;;;;;;;5.07;2.20;;;34.00;19.80;;;;;;5056324;28;20471;-58
2023/04/14 11:52:31;;;;;;;4.60;2.60;;;34.40;20.40;;;;;;5054698;28;20426;-58
2023/04/14 11:54:57;;;;;;;6.63;2.13;;;34.80;20.90;;;;;;5055322;28;20222;-58
2023/04/14 11:57:26;;;;;;;4.10;1.60;;;34.50;19.70;;;;;;5055389;28;20251;-58
2023/04/14 11:59:53;;;;;;;3.75;1.75;;;34.20;19.40;;;;;;5055156;28;20209;-57
2023/04/14 12:02:20;;;;;;;2.55;1.27;;;34.40;18.20;;;;;;5055200;28;20226;-58
2023/04/14 12:04:49;;;;;;;2.28;1.35;;;34.60;17.60;;;;;;5055229;28;20296;-58
2023/04/14 12:07:17;;;;;;;3.22;1.52;;;35.10;17.50;;;;;;5055145;28;20234;-58
2023/04/14 12:09:45;;;;;;;2.35;1.48;;;35.80;17.60;;;;;;5055083;28;20203;-58
2023/04/14 12:12:13;;;;;;;3.65;2.08;;;36.60;17.50;;;;;;5054984;28;20206;-58
2023/04/14 12:14:44;;;;;;;4.70;1.88;;;37.20;17.20;;;;;;5054893;28;20351;-58
2023/04/14 12:17:11;;;;;;;4.85;2.20;;;37.80;17.20;;;;;;5055003;28;20205;-58
2023/04/14 12:19:38;;;;;;;4.53;1.95;;;38.40;17.20;;;;;;5054954;28;20260;-58
2023/04/14 12:22:06;;;;;;;3.67;2.30;;;38.70;17.10;;;;;;5054853;28;20211;-58
2023/04/14 12:24:34;;;;;;;2.63;1.98;;;38.40;16.40;;;;;;5054766;28;20249;-58
2023/04/14 12:27:03;;;;;;;3.78;1.88;;;37.80;17.60;;;;;;5054747;28;20206;-58
2023/04/14 12:29:30;;;;;;;3.60;1.80;;;37.50;16.80;;;;;;5054385;28;20207;-58
2023/04/14 12:31:58;;;;;;;4.35;1.80;;;37.40;17.00;;;;;;5054742;28;20621;-58
2023/04/14 12:34:25;;;;;;;3.35;1.52;;;37.50;16.90;;;;;;5054614;28;20222;-58
2023/04/14 12:36:52;;;;;;;3.65;1.80;;;37.50;16.10;;;;;;5054646;28;20199;-58
2023/04/14 12:39:20;;;;;;;3.90;1.90;;;37.70;17.20;;;;;;5054586;28;20207;-57
2023/04/14 12:41:47;;;;;;;4.30;2.17;;;37.60;17.20;;;;;;5054389;28;20221;-58
2023/04/14 12:44:19;;;;;;;2.92;1.90;;;37.10;17.60;;;;;;5054561;28;20232;-58
2023/04/14 12:46:50;;;;;;;2.75;1.70;;;36.40;18.10;;;;;;5054570;28;20237;-58
2023/04/14 12:49:31;;;;;;;3.58;2.30;;;36.20;16.30;;;;;;5054096;28;20676;-58
2023/04/14 12:51:58;;;;;;;3.08;2.00;;;35.50;17.70;;;;;;5054531;28;20206;-58
2023/04/14 12:54:24;;;;;;;5.60;2.10;;;34.40;18.20;;;;;;5053871;28;20704;-58
2023/04/14 12:56:51;;;;;;;4.20;1.57;;;33.40;19.80;;;;;;5054209;28;20456;-58
2023/04/14 12:59:18;;;;;;;2.87;1.47;;;32.90;20.60;;;;;;5054257;28;20511;-57